• Join FlightAware (Why Join?)
  • Login
  • US Flag 
07:05AM EDT


 

Airport Tracker/Info


-or-


 

Live Flight TrackerFlight Track Log ✈ EJA122 ✈ 10-Jun-2013 ✈ KOAK - KFAT

Flight Track Log - Related Links

Times and Time Zones

All times are in EDT time to prevent confusion due to time zone crossing. See the EJA122 flight status page for this flight to view local times or setup timezone preferences in your user account.

Time Position Orientation Groundspeed Altitude Reporting Facility
EDT Latitude Longitude Course Direction KTS MPH feet Rate Location/Type
04:40PM 37.7500 -122.2833 302° West 228 262 2,400  Level Northern Cal TRACON
04:41PM 37.7833 -122.3500 302° West 226 260 6,100 3,000 Climbing Northern Cal TRACON
04:42PM 37.7833 -122.4333 270° West 248 285 8,400 2,520 Climbing Northern Cal TRACON
04:44PM 37.6722 -122.4506 187° South 255 293 13,000 2,640 Climbing Oakland Center
04:44PM 37.6500 -122.4333 148° Southeast 262 302 13,700 1,260 Climbing Northern Cal TRACON
04:45PM 37.6164 -122.3822 130° Southeast 286 329 14,300 1,260 Climbing Oakland Center
04:46PM 37.5519 -122.2989 134° Southeast 327 376 15,900 1,800 Climbing Oakland Center
04:47PM 37.5156 -122.1861 112° Southeast 358 412 18,000 1,500 Climbing Oakland Center
04:48PM 37.4847 -122.0656 108° East 362 417 19,000 480 Climbing Oakland Center
04:49PM 37.4500 -121.9281 108° East 412 474 19,000  Level Oakland Center
04:50PM 37.4053 -121.7536 108° East 436 502 19,000  Level Oakland Center
04:51PM 37.3675 -121.6078 108° East 440 506 19,000  Level Oakland Center
04:52PM 37.3303 -121.4636 108° East 434 499 19,000  Level Oakland Center
04:53PM 37.2936 -121.3217 108° East 430 495 19,000  Level Oakland Center
04:54PM 37.2556 -121.1789 108° East 432 497 19,000  Level Oakland Center
04:55PM 37.2181 -121.0406 109° East 424 488 19,000  Level Oakland Center
04:56PM 37.1822 -120.9033 108° East 419 482 19,000  Level Oakland Center
04:57PM 37.1461 -120.7667 108° East 415 478 19,000  Level Oakland Center
04:58PM 37.1097 -120.6333 109° East 410 472 19,000 -1,020 Level Oakland Center
04:59PM 37.0642 -120.4750 110° East 405 466 17,000 -1,980 Descending Oakland Center
05:00PM 37.0306 -120.3458 108° East 394 453 15,000 -1,980 Descending Oakland Center
05:01PM 36.9953 -120.2197 109° East 387 445 13,000 -1,920 Descending Oakland Center
05:02PM 36.9639 -120.1069 109° East 389 448 11,200 -1,680 Descending Oakland Center
05:03PM 36.9244 -119.9656 109° East 341 392 9,700 -1,860 Descending Oakland Center
05:04PM 36.8978 -119.8661 109° East 307 353 7,400 -2,280 Descending Oakland Center
05:05PM 36.8692 -119.7739 111° Southeast 286 329 5,100 -1,380 Descending Oakland Center
05:06PM 36.8311 -119.6881 119° Southeast 284 327 4,700 -1,200 Descending Oakland Center
05:07PM 36.7869 -119.6139 127° Southeast 268 308 2,700 -1,440 Descending Oakland Center
05:08PM 36.7444 -119.6183 185° South 192 221 1,800 -720 Descending Oakland Center
05:09PM 36.7461 -119.6661 273° West 148 170 1,300 -720 Descending Oakland Center
05:10PM 36.7686 -119.7072 304° West 135 155 400 -900 Descending Oakland Center
05:12PM 36.7667 -119.7167 270° West  Level FlightAware Approximate
05:19PM 36.7764 -119.7187 270° West  Level Estimated